Time;durP1;ratioP1;P1;durP2;ratioP2;P2;SDS_P1;SDS_P2;PMS_P1;PMS_P2;Temp;Humidity;BMP_temperature;BMP_pressure;BME280_temperature;BME280_humidity;BME280_pressure;Samples;Min_cycle;Max_cycle;Signal;HPM_P1;HPM_P2
2022/08/23 00:02:25;;;;;;;14.43;8.70;;;;;;;16.95;83.49;101361.38;5069436;28;20766;-89
2022/08/23 00:04:51;;;;;;;17.10;8.73;;;;;;;16.93;84.21;101362.34;5068148;28;20794;-89
2022/08/23 00:07:17;;;;;;;18.90;9.05;;;;;;;16.88;84.38;101364.31;5070550;28;20374;-90
2022/08/23 00:09:42;;;;;;;14.90;9.23;;;;;;;16.84;83.67;101360.13;5067568;28;20512;-89
2022/08/23 00:12:18;;;;;;;15.38;9.15;;;;;;;16.86;84.27;101358.28;5068140;28;20024;-91
2022/08/23 00:14:50;;;;;;;14.98;9.90;;;;;;;16.83;84.00;101359.28;5073507;28;20103;-89
2022/08/23 00:17:15;;;;;;;15.68;9.88;;;;;;;16.80;84.54;101361.16;5073030;28;20077;-90
2022/08/23 00:19:41;;;;;;;18.73;9.63;;;;;;;16.75;85.02;101358.72;5070407;28;20037;-89
2022/08/23 00:22:07;;;;;;;15.32;9.95;;;;;;;16.74;85.11;101348.31;5069421;28;20138;-90
2022/08/23 00:24:34;;;;;;;18.40;10.07;;;;;;;16.72;84.78;101350.16;5068932;28;20486;-91
2022/08/23 00:27:13;;;;;;;16.40;10.07;;;;;;;16.69;84.78;101350.28;5067507;28;20042;-90
2022/08/23 00:29:46;;;;;;;18.08;10.60;;;;;;;16.65;85.35;101348.72;5066838;28;20031;-90
2022/08/23 00:32:17;;;;;;;15.35;10.35;;;;;;;16.63;85.39;101346.16;5052519;28;20021;-89
2022/08/23 00:34:43;;;;;;;15.10;10.38;;;;;;;16.59;85.24;101349.75;5065630;28;20029;-90
2022/08/23 00:37:09;;;;;;;17.70;11.63;;;;;;;16.53;85.36;101350.84;5067441;28;20043;-91
2022/08/23 00:39:34;;;;;;;17.15;10.95;;;;;;;16.54;85.75;101359.56;5072652;28;20290;-90
2022/08/23 00:47:38;;;;;;;16.42;11.10;;;;;;;16.46;86.50;101346.78;5067411;28;20023;-91
2022/08/23 00:47:40;;;;;;;16.70;10.82;;;;;;;16.42;86.98;101350.44;5069006;28;20043;-90
2022/08/23 00:50:28;;;;;;;18.10;10.23;;;;;;;16.45;86.25;101352.06;5069154;28;20044;-90
2022/08/23 00:53:13;;;;;;;17.40;10.38;;;;;;;16.41;86.49;101353.97;5066289;28;20020;-90
2022/08/23 00:55:41;;;;;;;16.67;11.30;;;;;;;16.38;87.67;101348.00;5067159;28;20020;-90
2022/08/23 00:58:07;;;;;;;17.73;11.18;;;;;;;16.34;86.89;101349.03;5067982;28;20654;-89
2022/08/23 01:00:34;;;;;;;18.05;11.52;;;;;;;16.32;87.13;101351.72;5061069;28;20120;-91
2022/08/23 01:03:01;;;;;;;17.02;11.75;;;;;;;16.31;87.48;101346.56;5066784;28;20020;-89
2022/08/23 01:05:34;;;;;;;17.02;11.65;;;;;;;16.32;87.72;101361.31;5070349;28;20684;-88
2022/08/23 01:07:59;;;;;;;18.00;12.35;;;;;;;16.28;87.59;101360.59;5066935;28;20507;-89
2022/08/23 01:10:29;;;;;;;19.27;11.45;;;;;;;16.29;87.74;101366.69;5067572;28;20028;-90
2022/08/23 01:12:59;;;;;;;19.15;11.93;;;;;;;16.30;87.96;101373.63;5067159;28;20024;-89
2022/08/23 01:15:31;;;;;;;15.23;11.23;;;;;;;16.33;88.21;101373.50;5062494;28;20508;-90
2022/08/23 01:18:05;;;;;;;17.02;12.23;;;;;;;16.30;88.31;101350.09;5062174;28;20155;-90
2022/08/23 01:20:38;;;;;;;18.48;12.38;;;;;;;16.31;88.30;101355.22;5064700;28;20029;-91
2022/08/23 01:23:19;;;;;;;19.67;12.30;;;;;;;16.33;88.23;101358.66;5068332;28;20017;-91
2022/08/23 01:25:45;;;;;;;16.83;11.55;;;;;;;16.30;88.88;101356.19;5070034;28;20047;-89
2022/08/23 01:28:10;;;;;;;18.98;12.10;;;;;;;16.30;88.69;101348.31;5066107;28;20025;-89
2022/08/23 01:30:37;;;;;;;18.37;12.13;;;;;;;16.29;88.45;101362.31;5068816;28;20037;-90
2022/08/23 01:33:05;;;;;;;18.00;11.80;;;;;;;16.28;88.83;101357.13;5069327;28;20282;-90
2022/08/23 01:35:46;;;;;;;20.13;12.13;;;;;;;16.24;88.47;101361.63;5066176;28;20028;-90
2022/08/23 01:38:12;;;;;;;18.63;12.35;;;;;;;16.20;89.11;101353.06;5065364;28;20592;-90
2022/08/23 01:40:38;;;;;;;16.33;12.32;;;;;;;16.22;89.54;101354.75;5067347;28;20108;-90
2022/08/23 01:43:05;;;;;;;20.38;12.45;;;;;;;16.18;89.96;101349.63;5069056;28;20029;-89
2022/08/23 01:45:31;;;;;;;19.08;12.10;;;;;;;16.18;89.43;101356.63;5065371;28;20106;-89
2022/08/23 01:47:57;;;;;;;18.65;12.43;;;;;;;16.17;89.43;101354.94;5076483;28;20036;-89
2022/08/23 01:50:23;;;;;;;19.33;12.43;;;;;;;16.13;89.18;101354.19;5068371;28;20028;-90
2022/08/23 01:52:49;;;;;;;20.95;12.68;;;;;;;16.12;89.86;101359.47;5068332;28;20081;-90
2022/08/23 01:55:15;;;;;;;19.70;12.35;;;;;;;16.10;90.47;101351.69;5065621;28;20036;-90
2022/08/23 01:57:43;;;;;;;18.75;12.90;;;;;;;16.11;89.54;101358.63;5067585;28;20485;-89
2022/08/23 02:00:09;;;;;;;20.35;13.55;;;;;;;16.06;89.33;101354.47;5069914;28;20032;-93
2022/08/23 02:02:36;;;;;;;19.08;13.55;;;;;;;16.00;89.89;101346.88;5066980;28;20024;-91
2022/08/23 02:05:03;;;;;;;21.27;12.38;;;;;;;15.99;90.13;101355.63;5064132;28;20020;-90
2022/08/23 02:07:29;;;;;;;19.42;13.20;;;;;;;15.98;89.72;101349.53;5066586;28;20060;-90
2022/08/23 02:09:54;;;;;;;19.45;13.20;;;;;;;15.98;90.02;101359.16;5067126;28;20067;-88
2022/08/23 02:12:20;;;;;;;20.23;13.77;;;;;;;15.93;89.75;101358.47;5067410;28;20036;-88
2022/08/23 02:14:46;;;;;;;21.42;13.82;;;;;;;15.90;90.41;101356.81;5064967;28;20029;-90
2022/08/23 02:17:12;;;;;;;23.10;14.25;;;;;;;15.90;90.24;101356.81;5068725;28;20040;-89
2022/08/23 02:19:38;;;;;;;22.95;14.30;;;;;;;15.88;90.41;101355.19;5067943;28;20035;-90
2022/08/23 02:22:05;;;;;;;22.67;14.73;;;;;;;15.85;90.55;101350.06;5067693;28;20081;-90
2022/08/23 02:24:31;;;;;;;21.67;14.57;;;;;;;15.84;91.00;101354.44;5074786;28;20026;-90
2022/08/23 02:27:00;;;;;;;23.88;16.02;;;;;;;15.80;90.17;101353.72;5068204;28;20033;-91
2022/08/23 02:29:28;;;;;;;21.33;15.02;;;;;;;15.76;90.25;101346.88;5065687;28;20086;-90
2022/08/23 02:31:54;;;;;;;21.77;15.85;;;;;;;15.76;90.13;101352.09;5067680;28;20450;-90
2022/08/23 02:34:20;;;;;;;22.92;16.05;;;;;;;15.75;90.62;101349.56;5065468;28;20024;-90
2022/08/23 02:36:45;;;;;;;23.27;15.15;;;;;;;15.74;90.53;101353.94;5080216;28;20039;-90
2022/08/23 02:39:15;;;;;;;21.25;15.60;;;;;;;15.76;90.59;101359.94;5068161;28;20024;-90
2022/08/23 02:41:41;;;;;;;24.10;15.82;;;;;;;15.76;90.82;101364.34;5069154;28;20040;-91
2022/08/23 02:44:07;;;;;;;20.92;15.10;;;;;;;15.75;91.60;101373.09;5070821;28;20043;-90
2022/08/23 02:46:32;;;;;;;23.55;15.45;;;;;;;15.74;90.98;101374.84;5069546;28;20054;-89
2022/08/23 02:48:58;;;;;;;20.77;15.18;;;;;;;15.74;92.10;101372.25;5071292;28;20021;-89
2022/08/23 02:51:23;;;;;;;26.00;15.60;;;;;;;15.73;90.97;101372.28;5069262;28;20105;-90
2022/08/23 02:53:48;;;;;;;22.17;15.45;;;;;;;15.77;91.73;101377.34;5063961;28;20033;-91
2022/08/23 02:56:14;;;;;;;24.30;16.08;;;;;;;15.76;91.84;101380.03;5071637;28;20493;-91
2022/08/23 02:58:40;;;;;;;24.35;15.73;;;;;;;15.74;92.15;101374.84;5070670;28;20092;-86
2022/08/23 03:01:13;;;;;;;20.95;15.70;;;;;;;15.78;92.31;101384.28;5071480;28;20401;-87
2022/08/23 03:03:38;;;;;;;26.00;15.88;;;;;;;15.78;92.27;101380.81;5071556;28;20630;-85
2022/08/23 03:06:04;;;;;;;24.33;15.90;;;;;;;15.74;92.01;101376.63;5068714;28;20052;-86
2022/08/23 03:08:29;;;;;;;24.77;16.73;;;;;;;15.71;92.48;101380.19;5070627;28;20020;-86
2022/08/23 03:10:55;;;;;;;24.03;16.60;;;;;;;15.70;92.09;101375.84;5069221;28;20370;-88
2022/08/23 03:13:20;;;;;;;22.27;16.60;;;;;;;15.71;92.55;101380.19;5069704;28;20303;-86
2022/08/23 03:15:45;;;;;;;22.13;16.92;;;;;;;15.70;92.37;101381.09;5068622;28;20028;-86
2022/08/23 03:18:11;;;;;;;27.05;17.98;;;;;;;15.70;91.72;101388.94;5071725;28;20024;-85
2022/08/23 03:20:40;;;;;;;25.70;17.50;;;;;;;15.67;92.13;101396.91;5069664;28;20028;-86
2022/08/23 03:23:05;;;;;;;29.20;17.80;;;;;;;15.65;92.39;101398.69;5066245;28;20021;-87
2022/08/23 03:25:31;;;;;;;26.60;17.60;;;;;;;15.72;93.13;101407.16;5075752;28;20103;-86
2022/08/23 03:27:57;;;;;;;27.95;18.42;;;;;;;15.70;93.24;101399.38;5067497;28;20244;-86
2022/08/23 03:30:22;;;;;;;26.50;17.70;;;;;;;15.76;93.66;101399.16;5068210;28;20051;-89
2022/08/23 03:32:47;;;;;;;26.63;17.70;;;;;;;15.78;93.49;101404.34;5071364;28;20050;-90
2022/08/23 03:35:13;;;;;;;27.23;17.70;;;;;;;15.80;93.42;101392.94;5070184;28;20024;-92
2022/08/23 03:37:38;;;;;;;26.38;18.15;;;;;;;15.84;92.98;101401.50;5070595;28;20314;-91
2022/08/23 03:40:06;;;;;;;27.05;18.00;;;;;;;15.85;93.38;101397.13;5071292;28;20031;-90
2022/08/23 03:42:32;;;;;;;25.42;17.70;;;;;;;15.84;93.31;101395.41;5070581;28;20047;-90
2022/08/23 03:44:57;;;;;;;26.38;17.30;;;;;;;15.88;93.87;101402.25;5067407;28;20044;-90
2022/08/23 03:47:22;;;;;;;27.80;18.17;;;;;;;15.88;93.71;101405.72;5068694;28;20472;-91
2022/08/23 03:49:48;;;;;;;25.63;17.80;;;;;;;15.90;93.15;101403.88;5066535;28;20293;-90
2022/08/23 03:52:13;;;;;;;28.45;18.45;;;;;;;15.91;93.41;101405.59;5063934;28;20514;-92
2022/08/23 03:54:39;;;;;;;24.83;18.02;;;;;;;15.91;93.35;101404.72;5068767;28;20040;-91
2022/08/23 03:57:08;;;;;;;24.75;17.58;;;;;;;15.92;92.99;101406.44;5069566;28;20123;-91
2022/08/23 03:59:36;;;;;;;26.15;18.15;;;;;;;15.93;93.70;101409.00;5069546;28;20028;-86
2022/08/23 04:02:01;;;;;;;26.40;17.73;;;;;;;15.93;93.70;101410.78;5069820;28;20039;-86
2022/08/23 04:04:27;;;;;;;24.50;18.08;;;;;;;15.96;93.56;101408.06;5067758;28;20012;-86
2022/08/23 04:06:52;;;;;;;26.90;17.98;;;;;;;15.97;93.99;101402.75;5070799;28;20026;-86
2022/08/23 04:09:17;;;;;;;24.13;17.90;;;;;;;15.99;95.11;101397.47;5078340;28;20047;-87
2022/08/23 04:11:43;;;;;;;26.13;18.60;;;;;;;16.02;95.07;101407.81;5067653;28;20035;-86
2022/08/23 04:14:08;;;;;;;27.60;18.38;;;;;;;16.05;95.07;101407.69;5070258;28;20779;-86
2022/08/23 04:16:39;;;;;;;25.55;17.10;;;;;;;16.07;94.49;101411.13;5075281;28;20036;-87
2022/08/23 04:19:08;;;;;;;28.10;18.48;;;;;;;16.08;95.16;101407.59;5069303;28;20107;-86
2022/08/23 04:21:35;;;;;;;24.10;17.35;;;;;;;16.09;95.00;101414.53;5068830;28;20056;-87
2022/08/23 04:24:01;;;;;;;28.92;17.45;;;;;;;16.06;94.57;101410.25;5070158;28;20028;-88
2022/08/23 04:26:26;;;;;;;25.33;17.52;;;;;;;16.12;94.63;101411.78;5071615;28;20016;-88
2022/08/23 04:28:51;;;;;;;23.48;17.58;;;;;;;16.12;94.29;101415.25;5072517;28;20115;-86
2022/08/23 04:31:19;;;;;;;24.63;17.70;;;;;;;16.14;94.18;101412.59;5068815;28;20028;-87
2022/08/23 04:33:44;;;;;;;26.15;17.23;;;;;;;16.16;93.78;101416.00;5068191;28;20314;-86
2022/08/23 04:36:10;;;;;;;24.67;17.00;;;;;;;16.15;94.15;101415.16;5066202;28;20475;-87
2022/08/23 04:38:35;;;;;;;26.63;17.65;;;;;;;16.15;94.11;101412.53;5069347;28;20028;-87
2022/08/23 04:43:45;;;;;;;23.42;17.55;;;;;;;16.18;93.89;101422.00;5068231;28;20059;-85
2022/08/23 04:46:14;;;;;;;25.03;17.07;;;;;;;16.17;94.74;101421.16;5066445;28;20404;-86
2022/08/23 04:48:40;;;;;;;25.08;16.30;;;;;;;16.17;94.35;101425.56;5076014;28;20619;-87
2022/08/23 04:51:06;;;;;;;23.75;16.90;;;;;;;16.17;94.39;101425.56;5069234;28;20028;-86
2022/08/23 04:53:34;;;;;;;31.08;18.55;;;;;;;16.15;93.79;101427.38;5069740;28;20389;-86
2022/08/23 04:56:01;;;;;;;23.10;16.95;;;;;;;16.15;93.98;101428.25;5065328;28;20098;-86
2022/08/23 04:58:31;;;;;;;30.05;18.45;;;;;;;16.16;94.16;101429.09;5067875;28;20020;-86
2022/08/23 05:00:59;;;;;;;26.25;17.45;;;;;;;16.19;94.25;101423.72;5068943;28;20028;-87
2022/08/23 05:03:25;;;;;;;24.08;17.25;;;;;;;16.22;94.96;101434.09;5073142;28;20032;-87
2022/08/23 05:05:52;;;;;;;28.35;17.85;;;;;;;16.24;94.27;101428.81;5068698;28;20157;-86
2022/08/23 05:08:17;;;;;;;27.52;17.15;;;;;;;16.27;95.79;101431.28;5067360;28;20021;-87
2022/08/23 05:10:43;;;;;;;27.85;18.77;;;;;;;16.33;94.35;101431.06;5068066;28;20021;-85
2022/08/23 05:13:08;;;;;;;26.50;17.83;;;;;;;16.36;94.69;101429.19;5069116;28;20028;-85
2022/08/23 05:15:34;;;;;;;29.20;19.08;;;;;;;16.41;94.52;101435.09;5065404;28;20024;-85
2022/08/23 05:17:59;;;;;;;26.83;17.70;;;;;;;16.46;95.68;101435.75;5068501;28;20032;-85
2022/08/23 05:20:25;;;;;;;28.30;18.03;;;;;;;16.53;95.55;101441.59;5067699;28;20043;-85
2022/08/23 05:22:50;;;;;;;26.38;18.90;;;;;;;16.58;95.58;101435.28;5068680;28;20347;-85
2022/08/23 05:25:16;;;;;;;26.17;18.77;;;;;;;16.65;95.44;101437.72;5066291;28;20021;-85
2022/08/23 05:27:42;;;;;;;29.10;18.92;;;;;;;16.68;94.71;101430.56;5066970;28;20040;-85
2022/08/23 05:30:07;;;;;;;31.67;19.67;;;;;;;16.71;93.81;101429.63;5067899;28;20027;-85
2022/08/23 05:32:33;;;;;;;31.23;18.63;;;;;;;16.70;93.53;101430.53;5068890;28;20043;-87
2022/08/23 05:34:58;;;;;;;30.77;19.05;;;;;;;16.74;93.82;101438.19;5065517;28;20025;-85
2022/08/23 05:37:24;;;;;;;28.45;19.70;;;;;;;16.70;93.30;101448.84;5071623;28;20613;-86
2022/08/23 05:39:49;;;;;;;27.90;18.85;;;;;;;16.69;94.06;101441.91;5066519;28;20028;-85
2022/08/23 05:42:15;;;;;;;28.47;18.80;;;;;;;16.73;94.36;101467.03;5067837;28;20025;-85
2022/08/23 05:44:42;;;;;;;30.92;19.90;;;;;;;16.73;94.55;101461.81;5072750;28;20294;-85
2022/08/23 05:47:10;;;;;;;30.75;19.60;;;;;;;16.77;94.72;101469.50;5067035;28;20039;-85
2022/08/23 05:49:36;;;;;;;34.03;19.42;;;;;;;16.82;95.09;101472.78;5064735;28;20033;-85
2022/08/23 05:52:05;;;;;;;31.05;19.30;;;;;;;16.89;94.96;101479.47;5063315;28;20037;-85
2022/08/23 05:54:31;;;;;;;37.13;20.58;;;;;;;16.99;95.02;101477.34;5066269;28;20040;-84
2022/08/23 05:56:56;;;;;;;33.95;22.60;;;;;;;17.07;94.57;101479.66;5067032;28;20032;-84
2022/08/23 05:59:22;;;;;;;32.33;20.73;;;;;;;17.13;93.65;101477.63;5067825;28;20028;-87
2022/08/23 06:01:47;;;;;;;34.03;23.10;;;;;;;17.20;93.55;101484.31;5068234;28;20032;-89
2022/08/23 06:04:13;;;;;;;34.55;22.80;;;;;;;17.27;92.81;101484.94;5068294;28;20024;-89
2022/08/23 06:06:40;;;;;;;33.05;23.65;;;;;;;17.33;91.78;101482.91;5100597;28;20037;-89
2022/08/23 06:09:09;;;;;;;33.22;24.38;;;;;;;17.43;93.64;101483.38;5069011;28;20044;-88
2022/08/23 06:11:35;;;;;;;37.65;26.02;;;;;;;17.50;93.24;101482.22;5069387;28;20024;-89
2022/08/23 06:14:05;;;;;;;39.92;25.00;;;;;;;17.55;92.90;101487.25;5070491;28;20124;-89
2022/08/23 06:16:33;;;;;;;35.55;26.05;;;;;;;17.61;91.85;101479.16;5062522;28;20040;-89
2022/08/23 06:19:01;;;;;;;37.95;25.85;;;;;;;17.68;90.86;101476.22;5070074;28;20020;-89
2022/08/23 06:21:27;;;;;;;34.72;25.63;;;;;;;17.77;92.79;101491.56;5072358;28;20040;-89
2022/08/23 06:23:52;;;;;;;36.67;28.15;;;;;;;17.85;92.77;101483.34;5068960;28;20050;-89
2022/08/23 06:26:20;;;;;;;38.53;26.95;;;;;;;17.91;92.44;101485.72;5071146;28;20063;-89
2022/08/23 06:28:48;;;;;;;36.08;27.02;;;;;;;18.00;89.92;101482.69;5070592;28;20092;-89
2022/08/23 06:31:14;;;;;;;39.83;28.17;;;;;;;18.10;91.58;101481.34;5070453;28;20349;-89
2022/08/23 06:33:41;;;;;;;39.38;27.95;;;;;;;18.24;89.89;101485.13;5072193;28;20491;-89
2022/08/23 06:36:16;;;;;;;38.88;28.70;;;;;;;18.33;88.49;101489.97;5064279;28;20037;-88
2022/08/23 06:38:43;;;;;;;42.80;29.33;;;;;;;18.43;89.38;101486.84;5070419;28;20123;-89
2022/08/23 06:41:11;;;;;;;39.78;29.95;;;;;;;18.51;88.01;101492.59;5070888;28;20459;-90
2022/08/23 06:43:37;;;;;;;42.97;30.02;;;;;;;18.59;86.82;101487.03;5072126;28;20055;-89
2022/08/23 06:46:15;;;;;;;42.95;30.17;;;;;;;18.71;86.24;101490.84;5067940;28;20058;-90
2022/08/23 06:48:45;;;;;;;45.30;31.23;;;;;;;18.79;84.54;101492.19;5071934;28;20056;-89
2022/08/23 06:51:24;;;;;;;44.15;30.75;;;;;;;18.87;84.95;101489.19;5069306;28;20405;-89
2022/08/23 06:53:54;;;;;;;43.22;31.60;;;;;;;18.91;85.98;101481.09;5074534;28;20036;-89
2022/08/23 06:56:21;;;;;;;39.45;31.05;;;;;;;18.99;84.78;101488.59;5070171;28;20032;-90
2022/08/23 06:58:46;;;;;;;41.58;30.13;;;;;;;19.03;83.65;101490.19;5071851;28;20459;-90
2022/08/23 07:01:14;;;;;;;40.20;29.40;;;;;;;19.03;82.97;101484.91;5071843;28;20051;-90
2022/08/23 07:03:39;;;;;;;40.42;28.20;;;;;;;19.02;84.30;101482.34;5070766;28;20792;-90
2022/08/23 07:06:05;;;;;;;38.30;28.23;;;;;;;19.01;84.89;101481.50;5073314;28;20020;-90
2022/08/23 07:08:30;;;;;;;39.35;27.58;;;;;;;19.00;84.61;101485.06;5070266;28;20336;-89
2022/08/23 07:10:55;;;;;;;38.53;27.48;;;;;;;19.00;86.33;101485.06;5076959;28;20744;-90
2022/08/23 07:13:21;;;;;;;40.30;26.88;;;;;;;19.04;83.01;101486.59;5062701;28;20029;-89
2022/08/23 07:15:47;;;;;;;40.63;27.42;;;;;;;19.07;82.73;101496.13;5066288;28;20032;-89
2022/08/23 07:18:13;;;;;;;41.35;26.65;;;;;;;19.08;83.06;101489.94;5068326;28;20048;-89
2022/08/23 07:20:38;;;;;;;37.97;26.23;;;;;;;19.11;85.56;101495.88;5080534;28;20025;-89
2022/08/23 07:23:04;;;;;;;37.92;26.35;;;;;;;19.12;84.41;101494.97;5070479;28;20030;-89
2022/08/23 07:25:31;;;;;;;36.97;27.10;;;;;;;19.19;82.58;101498.16;5070584;28;20061;-89
2022/08/23 07:27:57;;;;;;;36.33;25.30;;;;;;;19.21;83.21;101497.16;5070839;28;20020;-89
2022/08/23 07:30:22;;;;;;;32.67;25.27;;;;;;;19.22;84.45;101496.22;5080485;28;20089;-89
2022/08/23 07:32:48;;;;;;;35.30;25.08;;;;;;;19.31;82.03;101492.31;5070971;28;20074;-90
2022/08/23 07:35:13;;;;;;;34.15;25.50;;;;;;;19.32;84.25;101500.09;5070782;28;20112;-89
2022/08/23 07:37:38;;;;;;;34.67;24.10;;;;;;;19.37;86.02;101502.53;5061873;28;20025;-88
2022/08/23 07:40:07;;;;;;;38.22;25.45;;;;;;;19.43;82.59;101506.63;5102460;28;20302;-89
2022/08/23 07:42:32;;;;;;;33.97;23.60;;;;;;;19.47;82.15;101508.19;5075203;28;20098;-88
2022/08/23 07:44:57;;;;;;;38.63;24.83;;;;;;;19.58;80.62;101511.97;5066591;28;20432;-87
2022/08/23 07:47:23;;;;;;;36.97;24.42;;;;;;;19.66;82.51;101508.94;5068807;28;20032;-88
2022/08/23 07:49:48;;;;;;;36.60;24.30;;;;;;;19.75;79.97;101513.75;5073569;28;20039;-88
2022/08/23 07:52:14;;;;;;;34.03;23.48;;;;;;;19.86;81.46;101515.81;5064865;28;20047;-88
2022/08/23 07:54:39;;;;;;;30.95;23.52;;;;;;;19.90;85.17;101512.97;5069837;28;20021;-88
2022/08/23 07:57:04;;;;;;;35.45;23.90;;;;;;;20.00;81.22;101521.22;5070836;28;20090;-89
2022/08/23 07:59:30;;;;;;;33.03;24.33;;;;;;;20.07;81.82;101523.47;5070881;28;20027;-89
2022/08/23 08:01:55;;;;;;;36.63;24.92;;;;;;;20.13;82.52;101524.91;5069784;28;20033;-88
2022/08/23 08:04:21;;;;;;;32.97;24.35;;;;;;;20.22;83.09;101528.84;5064893;28;20027;-89
2022/08/23 08:06:49;;;;;;;38.08;25.63;;;;;;;20.37;76.80;101531.56;5072692;28;20020;-89
2022/08/23 08:09:14;;;;;;;38.47;25.63;;;;;;;20.60;74.64;101529.47;5069870;28;20060;-90
2022/08/23 08:11:44;;;;;;;33.03;24.98;;;;;;;20.99;79.81;101532.53;5069392;28;20052;-89
2022/08/23 08:14:10;;;;;;;40.30;26.50;;;;;;;21.38;78.01;101536.50;5067062;28;20116;-89
2022/08/23 08:16:39;;;;;;;39.05;24.90;;;;;;;21.72;78.20;101530.13;5068718;28;20436;-89
2022/08/23 08:19:07;;;;;;;36.80;26.65;;;;;;;22.10;76.47;101535.78;5069148;28;20135;-89
2022/08/23 08:21:34;;;;;;;32.35;24.20;;;;;;;22.40;70.95;101532.09;5069456;28;20034;-90
2022/08/23 08:24:00;;;;;;;33.35;23.98;;;;;;;22.71;72.44;101538.13;5074282;28;20073;-91
2022/08/23 08:26:26;;;;;;;33.35;24.08;;;;;;;23.05;73.87;101540.34;5070347;28;20052;-91
2022/08/23 08:28:54;;;;;;;31.23;22.92;;;;;;;23.32;69.54;101535.03;5070739;28;20115;-91
2022/08/23 08:31:20;;;;;;;28.17;21.13;;;;;;;23.64;68.98;101532.91;5057095;28;20412;-90
2022/08/23 08:33:45;;;;;;;26.17;19.45;;;;;;;23.94;69.74;101540.59;5071311;28;20464;-90
2022/08/23 08:36:35;;;;;;;28.42;19.90;;;;;;;24.27;71.15;101534.78;5069077;28;20370;-90
2022/08/23 08:39:03;;;;;;;28.73;19.35;;;;;;;24.54;64.48;101529.34;5064091;28;20037;-86
2022/08/23 08:41:44;;;;;;;27.33;17.60;;;;;;;24.85;65.43;101536.78;5066845;28;20462;-85
2022/08/23 08:44:45;;;;;;;26.02;18.10;;;;;;;25.03;67.67;101535.50;5071130;28;20037;-86
2022/08/23 08:47:24;;;;;;;25.67;17.27;;;;;;;25.23;66.39;101534.03;5070034;28;20028;-86
2022/08/23 08:50:08;;;;;;;26.20;18.10;;;;;;;25.31;63.03;101538.75;5070386;28;20020;-86
2022/08/23 08:52:39;;;;;;;;;;;;;;;25.56;68.25;101541.25;5069378;28;20034;-86
2022/08/23 08:55:06;;;;;;;28.17;19.50;;;;;;;25.48;60.75;101546.28;5077557;28;19916;-86
2022/08/23 08:57:43;;;;;;;28.55;19.60;;;;;;;25.52;63.04;101548.59;5069031;28;20109;-86
2022/08/23 09:00:13;;;;;;;29.23;19.48;;;;;;;25.74;59.96;101547.00;5072650;28;20028;-86
2022/08/23 09:02:39;;;;;;;27.60;19.75;;;;;;;25.84;60.88;101551.53;5069706;28;20039;-86
2022/08/23 09:05:10;;;;;;;30.90;20.38;;;;;;;26.02;60.04;101556.38;5065939;28;20024;-86
2022/08/23 09:07:49;;;;;;;24.30;16.15;;;;;;;26.34;59.59;101549.41;5072704;28;20065;-86
2022/08/23 09:10:39;;;;;;;20.42;16.15;;;;;;;26.35;62.30;101545.81;5074992;28;20602;-89
2022/08/23 09:13:33;;;;;;;23.73;17.02;;;;;;;26.30;57.93;101550.63;5068710;28;20469;-90
2022/08/23 09:16:18;;;;;;;22.77;15.10;;;;;;;26.45;59.71;101553.91;5068342;28;20032;-89
2022/08/23 09:18:44;;;;;;;22.35;17.13;;;;;;;26.57;53.19;101550.28;5068000;28;20111;-90
2022/08/23 09:21:10;;;;;;;20.20;13.73;;;;;;;26.69;54.45;101552.78;5069084;28;20028;-90
2022/08/23 09:23:46;;;;;;;19.08;11.80;;;;;;;26.63;58.17;101549.78;5073344;28;20436;-91
2022/08/23 09:26:21;;;;;;;20.63;12.07;;;;;;;26.52;58.19;101561.28;5069232;28;20033;-90
2022/08/23 09:28:50;;;;;;;20.75;14.50;;;;;;;26.55;54.72;101554.84;5066944;28;20021;-90
2022/08/23 09:31:41;;;;;;;20.65;13.85;;;;;;;26.58;58.70;101549.31;5065133;28;20029;-90
2022/08/23 09:34:12;;;;;;;19.08;12.57;;;;;;;26.61;57.54;101549.06;5069391;28;20522;-89
2022/08/23 09:36:38;;;;;;;19.92;12.70;;;;;;;26.63;56.62;101547.97;5067407;28;20028;-90
2022/08/23 09:39:23;;;;;;;20.75;12.25;;;;;;;26.68;54.98;101551.09;5068156;28;20074;-93
2022/08/23 09:41:49;;;;;;;17.65;10.40;;;;;;;26.79;58.45;101552.06;5068159;28;20108;-90
2022/08/23 09:44:46;;;;;;;22.05;12.73;;;;;;;26.98;57.53;101555.81;5068660;28;20182;-90
2022/08/23 09:47:15;;;;;;;20.08;12.10;;;;;;;27.08;54.95;101553.25;5055885;28;20040;-90
2022/08/23 09:49:43;;;;;;;20.88;11.43;;;;;;;27.18;55.16;101548.84;5060357;28;20028;-91
2022/08/23 09:52:31;;;;;;;20.30;12.85;;;;;;;27.44;56.22;101557.34;5070234;28;20035;-90
2022/08/23 09:55:01;;;;;;;17.98;10.40;;;;;;;27.51;52.71;101551.38;5066229;28;20032;-91
2022/08/23 09:57:30;;;;;;;14.70;6.25;;;;;;;27.69;50.01;101553.50;5067594;28;20048;-90
2022/08/23 10:00:00;;;;;;;12.38;6.00;;;;;;;27.72;51.78;101543.41;5068987;28;20493;-91
2022/08/23 10:02:31;;;;;;;10.80;5.90;;;;;;;27.76;50.91;101538.69;5070407;28;20477;-90
2022/08/23 10:05:03;;;;;;;11.85;5.82;;;;;;;27.70;50.13;101536.56;5070125;28;20016;-91
2022/08/23 10:07:40;;;;;;;11.68;5.10;;;;;;;27.74;49.97;101538.81;5071991;28;20034;-90
2022/08/23 10:10:22;;;;;;;12.30;5.68;;;;;;;27.84;51.47;101533.56;5073184;28;20056;-90
2022/08/23 10:12:48;;;;;;;10.10;5.28;;;;;;;27.84;50.42;101539.72;5072305;28;20025;-91
2022/08/23 10:15:14;;;;;;;10.07;5.10;;;;;;;27.85;48.27;101535.22;5071623;28;20029;-90
2022/08/23 10:17:44;;;;;;;9.75;4.80;;;;;;;27.81;49.88;101533.81;5079844;28;20051;-90
2022/08/23 10:20:43;;;;;;;10.82;5.20;;;;;;;27.87;52.10;101531.47;5080729;28;20032;-87
2022/08/23 10:23:34;;;;;;;14.50;4.88;;;;;;;27.84;49.09;101537.03;5071922;28;20488;-87
2022/08/23 10:26:02;;;;;;;12.50;5.50;;;;;;;27.96;48.05;101535.16;5071595;28;20024;-87
2022/08/23 10:32:23;;;;;;;15.07;5.85;;;;;;;28.12;49.58;101540.84;5067658;28;20040;-87
2022/08/23 10:35:09;;;;;;;13.63;5.50;;;;;;;28.14;49.56;101530.06;5062201;28;20098;-86
2022/08/23 10:37:50;;;;;;;13.15;5.70;;;;;;;28.20;49.12;101532.22;5069950;28;20064;-87
2022/08/23 10:40:18;;;;;;;13.75;6.60;;;;;;;28.14;46.74;101524.72;5072475;28;20060;-86
2022/08/23 10:42:49;;;;;;;12.27;6.03;;;;;;;28.16;49.72;101530.81;5071761;28;20020;-87
2022/08/23 10:45:24;;;;;;;11.48;5.63;;;;;;;28.24;49.56;101531.00;5066424;28;20110;-87
2022/08/23 10:48:02;;;;;;;11.63;6.03;;;;;;;28.26;49.05;101529.88;5064119;28;20405;-87
2022/08/23 10:50:43;;;;;;;12.98;6.18;;;;;;;28.24;48.81;101525.66;5071553;28;20036;-91
2022/08/23 10:53:13;;;;;;;12.18;6.70;;;;;;;28.14;47.26;101519.41;5074178;28;20055;-91
2022/08/23 10:56:01;;;;;;;9.65;6.05;;;;;;;28.08;45.37;101520.78;5071409;28;20028;-90
2022/08/23 10:58:31;;;;;;;10.57;5.22;;;;;;;28.11;46.24;101520.53;5070752;28;20621;-92
2022/08/23 11:00:59;;;;;;;12.48;5.40;;;;;;;28.07;46.47;101513.75;5072309;28;20024;-91
2022/08/23 11:03:43;;;;;;;12.38;5.00;;;;;;;28.10;50.12;101518.00;5070799;28;20491;-91
2022/08/23 11:06:34;;;;;;;10.85;5.40;;;;;;;28.05;48.17;101513.03;5072227;28;20024;-91
2022/08/23 11:09:07;;;;;;;8.30;4.50;;;;;;;27.85;46.96;101513.91;5066482;28;20025;-91
2022/08/23 11:11:40;;;;;;;10.48;4.60;;;;;;;27.84;47.11;101517.56;5070304;28;20032;-91
2022/08/23 11:14:09;;;;;;;8.90;4.07;;;;;;;27.88;46.27;101519.84;5071454;28;20032;-91
2022/08/23 11:16:36;;;;;;;7.78;3.72;;;;;;;28.05;45.82;101515.69;5071754;28;20107;-91
2022/08/23 11:19:02;;;;;;;9.20;3.60;;;;;;;28.07;48.42;101513.75;5068867;28;20028;-92
2022/08/23 11:21:32;;;;;;;8.80;3.97;;;;;;;28.24;46.65;101507.84;5060471;28;20024;-91
2022/08/23 11:23:57;;;;;;;6.78;3.55;;;;;;;28.28;45.49;101514.59;5069949;28;20039;-92
2022/08/23 11:26:25;;;;;;;8.67;3.50;;;;;;;28.11;46.30;101512.53;5073128;28;20028;-91
2022/08/23 11:28:52;;;;;;;8.18;3.42;;;;;;;28.10;45.85;101515.31;5071287;28;20032;-91
2022/08/23 11:32:03;;;;;;;8.15;3.25;;;;;;;28.15;47.43;101518.44;5072373;28;20089;-90